sensor_id;sensor_type;location;lat;lon;timestamp;temperature;humidity
27544;DHT22;17996;51.056;3.656;2022-08-19T00:00:29;20.10;99.90
27544;DHT22;17996;51.056;3.656;2022-08-19T00:02:55;20.00;99.90
27544;DHT22;17996;51.056;3.656;2022-08-19T00:05:22;20.00;99.90
27544;DHT22;17996;51.056;3.656;2022-08-19T00:13:45;20.00;99.90
27544;DHT22;17996;51.056;3.656;2022-08-19T00:19:23;19.90;99.90
27544;DHT22;17996;51.056;3.656;2022-08-19T00:21:49;19.90;99.90
27544;DHT22;17996;51.056;3.656;2022-08-19T00:29:23;19.80;99.90
27544;DHT22;17996;51.056;3.656;2022-08-19T00:34:25;19.80;99.90
27544;DHT22;17996;51.056;3.656;2022-08-19T00:36:54;19.80;99.90
27544;DHT22;17996;51.056;3.656;2022-08-19T00:39:20;19.70;99.90
27544;DHT22;17996;51.056;3.656;2022-08-19T00:41:47;19.70;99.90
27544;DHT22;17996;51.056;3.656;2022-08-19T00:44:21;19.80;99.90
27544;DHT22;17996;51.056;3.656;2022-08-19T00:46:48;19.70;99.90
27544;DHT22;17996;51.056;3.656;2022-08-19T00:51:42;19.60;99.90
27544;DHT22;17996;51.056;3.656;2022-08-19T00:54:09;19.70;99.90
27544;DHT22;17996;51.056;3.656;2022-08-19T00:56:35;19.50;99.90
27544;DHT22;17996;51.056;3.656;2022-08-19T00:59:02;19.50;99.90
27544;DHT22;17996;51.056;3.656;2022-08-19T01:01:34;19.60;99.90
27544;DHT22;17996;51.056;3.656;2022-08-19T01:04:00;19.50;99.90
27544;DHT22;17996;51.056;3.656;2022-08-19T01:06:27;19.50;99.90
27544;DHT22;17996;51.056;3.656;2022-08-19T01:08:54;19.50;99.90
27544;DHT22;17996;51.056;3.656;2022-08-19T01:11:20;19.50;99.90
27544;DHT22;17996;51.056;3.656;2022-08-19T01:13:46;19.50;99.90
27544;DHT22;17996;51.056;3.656;2022-08-19T01:16:12;19.70;99.90
27544;DHT22;17996;51.056;3.656;2022-08-19T01:18:41;19.50;99.90
27544;DHT22;17996;51.056;3.656;2022-08-19T01:21:36;19.50;99.90
27544;DHT22;17996;51.056;3.656;2022-08-19T01:24:03;19.40;99.90
27544;DHT22;17996;51.056;3.656;2022-08-19T01:26:29;19.40;99.90
27544;DHT22;17996;51.056;3.656;2022-08-19T01:28:57;19.30;99.90
27544;DHT22;17996;51.056;3.656;2022-08-19T01:31:26;19.40;99.90
27544;DHT22;17996;51.056;3.656;2022-08-19T01:33:54;19.30;99.90
27544;DHT22;17996;51.056;3.656;2022-08-19T01:36:31;19.30;99.90
27544;DHT22;17996;51.056;3.656;2022-08-19T01:38:58;19.30;99.90
27544;DHT22;17996;51.056;3.656;2022-08-19T01:41:25;19.30;99.90
27544;DHT22;17996;51.056;3.656;2022-08-19T01:43:51;19.20;99.90
27544;DHT22;17996;51.056;3.656;2022-08-19T01:46:17;19.30;99.90
27544;DHT22;17996;51.056;3.656;2022-08-19T01:48:46;19.20;99.90
27544;DHT22;17996;51.056;3.656;2022-08-19T01:51:12;19.30;99.90
27544;DHT22;17996;51.056;3.656;2022-08-19T01:53:39;19.10;99.90
27544;DHT22;17996;51.056;3.656;2022-08-19T01:56:05;19.10;99.90
27544;DHT22;17996;51.056;3.656;2022-08-19T01:58:38;19.10;99.90
27544;DHT22;17996;51.056;3.656;2022-08-19T02:01:06;19.10;99.90
27544;DHT22;17996;51.056;3.656;2022-08-19T02:03:32;19.10;99.90
27544;DHT22;17996;51.056;3.656;2022-08-19T02:06:01;19.10;99.90
27544;DHT22;17996;51.056;3.656;2022-08-19T02:08:29;19.10;99.90
27544;DHT22;17996;51.056;3.656;2022-08-19T02:10:55;19.10;99.90
27544;DHT22;17996;51.056;3.656;2022-08-19T02:13:24;19.10;99.90
27544;DHT22;17996;51.056;3.656;2022-08-19T02:15:50;19.10;99.90
27544;DHT22;17996;51.056;3.656;2022-08-19T02:18:16;19.00;99.90
27544;DHT22;17996;51.056;3.656;2022-08-19T02:20:43;19.00;99.90
27544;DHT22;17996;51.056;3.656;2022-08-19T02:23:11;19.00;99.90
27544;DHT22;17996;51.056;3.656;2022-08-19T02:25:38;19.00;99.90
27544;DHT22;17996;51.056;3.656;2022-08-19T02:28:03;19.00;99.90
27544;DHT22;17996;51.056;3.656;2022-08-19T02:30:29;19.00;99.90
27544;DHT22;17996;51.056;3.656;2022-08-19T02:32:55;18.90;99.90
27544;DHT22;17996;51.056;3.656;2022-08-19T02:35:21;19.00;99.90
27544;DHT22;17996;51.056;3.656;2022-08-19T02:37:47;18.90;99.90
27544;DHT22;17996;51.056;3.656;2022-08-19T02:40:32;18.90;99.90
27544;DHT22;17996;51.056;3.656;2022-08-19T02:43:01;19.10;99.90
27544;DHT22;17996;51.056;3.656;2022-08-19T02:45:32;18.90;99.90
27544;DHT22;17996;51.056;3.656;2022-08-19T02:47:58;18.90;99.90
27544;DHT22;17996;51.056;3.656;2022-08-19T02:50:23;18.90;99.90
27544;DHT22;17996;51.056;3.656;2022-08-19T02:52:49;18.90;99.90
27544;DHT22;17996;51.056;3.656;2022-08-19T02:55:15;19.00;99.90
27544;DHT22;17996;51.056;3.656;2022-08-19T02:57:41;19.00;99.90
27544;DHT22;17996;51.056;3.656;2022-08-19T03:00:08;19.00;99.90
27544;DHT22;17996;51.056;3.656;2022-08-19T03:02:37;19.00;99.90
27544;DHT22;17996;51.056;3.656;2022-08-19T03:05:04;19.00;99.90
27544;DHT22;17996;51.056;3.656;2022-08-19T03:07:30;19.00;99.90
27544;DHT22;17996;51.056;3.656;2022-08-19T03:09:56;19.00;99.90
27544;DHT22;17996;51.056;3.656;2022-08-19T03:12:22;19.10;99.90
27544;DHT22;17996;51.056;3.656;2022-08-19T03:14:48;19.10;99.90
27544;DHT22;17996;51.056;3.656;2022-08-19T03:17:13;19.10;99.90
27544;DHT22;17996;51.056;3.656;2022-08-19T03:19:39;19.10;99.90
27544;DHT22;17996;51.056;3.656;2022-08-19T03:22:05;19.20;99.90
27544;DHT22;17996;51.056;3.656;2022-08-19T03:24:31;19.20;99.90
27544;DHT22;17996;51.056;3.656;2022-08-19T03:26:57;19.20;99.90
27544;DHT22;17996;51.056;3.656;2022-08-19T03:29:26;19.20;99.90
27544;DHT22;17996;51.056;3.656;2022-08-19T03:31:51;19.20;99.90
27544;DHT22;17996;51.056;3.656;2022-08-19T03:34:27;19.20;99.90
27544;DHT22;17996;51.056;3.656;2022-08-19T03:36:55;19.20;99.90
27544;DHT22;17996;51.056;3.656;2022-08-19T03:39:22;19.20;99.90
27544;DHT22;17996;51.056;3.656;2022-08-19T03:41:51;19.10;99.90
27544;DHT22;17996;51.056;3.656;2022-08-19T03:44:22;19.10;99.90
27544;DHT22;17996;51.056;3.656;2022-08-19T03:46:58;19.10;99.90
27544;DHT22;17996;51.056;3.656;2022-08-19T03:49:31;19.10;99.90
27544;DHT22;17996;51.056;3.656;2022-08-19T03:51:59;19.00;99.90
27544;DHT22;17996;51.056;3.656;2022-08-19T03:54:26;19.00;99.90
27544;DHT22;17996;51.056;3.656;2022-08-19T03:56:54;18.90;99.90
27544;DHT22;17996;51.056;3.656;2022-08-19T03:59:24;18.90;99.90
27544;DHT22;17996;51.056;3.656;2022-08-19T04:01:55;18.80;99.90
27544;DHT22;17996;51.056;3.656;2022-08-19T04:04:21;18.80;99.90
27544;DHT22;17996;51.056;3.656;2022-08-19T04:06:48;18.80;99.90
27544;DHT22;17996;51.056;3.656;2022-08-19T04:09:14;18.70;99.90
27544;DHT22;17996;51.056;3.656;2022-08-19T04:11:51;18.70;99.90
27544;DHT22;17996;51.056;3.656;2022-08-19T04:14:20;18.70;99.90
27544;DHT22;17996;51.056;3.656;2022-08-19T04:16:47;18.60;99.90
27544;DHT22;17996;51.056;3.656;2022-08-19T04:19:13;18.60;99.90
27544;DHT22;17996;51.056;3.656;2022-08-19T04:21:40;18.60;99.90
27544;DHT22;17996;51.056;3.656;2022-08-19T04:24:06;18.60;99.90
27544;DHT22;17996;51.056;3.656;2022-08-19T04:26:34;18.60;99.90
27544;DHT22;17996;51.056;3.656;2022-08-19T04:29:10;18.60;99.90
27544;DHT22;17996;51.056;3.656;2022-08-19T04:31:36;18.60;99.90
27544;DHT22;17996;51.056;3.656;2022-08-19T04:34:06;18.60;99.90
27544;DHT22;17996;51.056;3.656;2022-08-19T04:36:35;18.50;99.90
27544;DHT22;17996;51.056;3.656;2022-08-19T04:39:06;18.50;99.90
27544;DHT22;17996;51.056;3.656;2022-08-19T04:41:32;18.50;99.90
27544;DHT22;17996;51.056;3.656;2022-08-19T04:44:16;18.70;99.90
27544;DHT22;17996;51.056;3.656;2022-08-19T04:46:46;18.50;99.90
27544;DHT22;17996;51.056;3.656;2022-08-19T04:49:14;18.50;99.90
27544;DHT22;17996;51.056;3.656;2022-08-19T04:51:43;18.50;99.90
27544;DHT22;17996;51.056;3.656;2022-08-19T04:54:09;18.50;99.90
27544;DHT22;17996;51.056;3.656;2022-08-19T04:56:34;18.50;99.90
27544;DHT22;17996;51.056;3.656;2022-08-19T04:59:00;18.50;99.90
27544;DHT22;17996;51.056;3.656;2022-08-19T05:01:30;18.50;99.90
27544;DHT22;17996;51.056;3.656;2022-08-19T05:04:00;18.60;99.90
27544;DHT22;17996;51.056;3.656;2022-08-19T05:06:27;18.60;99.90
27544;DHT22;17996;51.056;3.656;2022-08-19T05:08:54;18.60;99.90
27544;DHT22;17996;51.056;3.656;2022-08-19T05:11:25;18.60;99.90
27544;DHT22;17996;51.056;3.656;2022-08-19T05:13:51;18.70;99.90
27544;DHT22;17996;51.056;3.656;2022-08-19T05:16:19;18.70;99.90
27544;DHT22;17996;51.056;3.656;2022-08-19T05:18:45;18.70;99.90
27544;DHT22;17996;51.056;3.656;2022-08-19T05:21:31;18.80;99.90
27544;DHT22;17996;51.056;3.656;2022-08-19T05:24:16;18.90;99.90
27544;DHT22;17996;51.056;3.656;2022-08-19T05:26:44;18.90;99.90
27544;DHT22;17996;51.056;3.656;2022-08-19T05:29:13;19.00;99.90
27544;DHT22;17996;51.056;3.656;2022-08-19T05:31:40;19.10;99.90
27544;DHT22;17996;51.056;3.656;2022-08-19T05:34:06;19.20;99.90
27544;DHT22;17996;51.056;3.656;2022-08-19T05:36:38;19.20;99.90
27544;DHT22;17996;51.056;3.656;2022-08-19T05:39:07;19.30;99.90
27544;DHT22;17996;51.056;3.656;2022-08-19T05:41:33;19.30;99.90
27544;DHT22;17996;51.056;3.656;2022-08-19T05:44:04;19.30;99.90
27544;DHT22;17996;51.056;3.656;2022-08-19T05:46:32;19.40;99.90
27544;DHT22;17996;51.056;3.656;2022-08-19T05:48:58;19.40;99.90
27544;DHT22;17996;51.056;3.656;2022-08-19T05:51:24;19.50;99.90
27544;DHT22;17996;51.056;3.656;2022-08-19T05:53:50;19.50;99.90
27544;DHT22;17996;51.056;3.656;2022-08-19T05:56:17;19.60;99.90
27544;DHT22;17996;51.056;3.656;2022-08-19T05:58:44;19.60;99.90
27544;DHT22;17996;51.056;3.656;2022-08-19T06:01:13;19.70;99.90
27544;DHT22;17996;51.056;3.656;2022-08-19T06:03:39;19.70;99.90
27544;DHT22;17996;51.056;3.656;2022-08-19T06:06:07;19.70;99.90
27544;DHT22;17996;51.056;3.656;2022-08-19T06:08:34;19.80;99.90
27544;DHT22;17996;51.056;3.656;2022-08-19T06:11:55;19.80;99.90
27544;DHT22;17996;51.056;3.656;2022-08-19T06:14:09;19.90;99.90
27544;DHT22;17996;51.056;3.656;2022-08-19T06:16:37;19.90;99.90
27544;DHT22;17996;51.056;3.656;2022-08-19T06:19:06;19.90;99.90
27544;DHT22;17996;51.056;3.656;2022-08-19T06:21:34;20.00;99.90
27544;DHT22;17996;51.056;3.656;2022-08-19T06:24:07;20.10;99.90
27544;DHT22;17996;51.056;3.656;2022-08-19T06:26:38;20.20;99.90
27544;DHT22;17996;51.056;3.656;2022-08-19T06:29:05;20.40;99.90
27544;DHT22;17996;51.056;3.656;2022-08-19T06:31:32;20.50;99.90
27544;DHT22;17996;51.056;3.656;2022-08-19T06:34:00;20.60;99.90
27544;DHT22;17996;51.056;3.656;2022-08-19T06:36:30;20.70;99.90
27544;DHT22;17996;51.056;3.656;2022-08-19T06:38:59;20.80;99.90
27544;DHT22;17996;51.056;3.656;2022-08-19T06:41:25;21.00;99.90
27544;DHT22;17996;51.056;3.656;2022-08-19T06:43:52;20.90;99.90
27544;DHT22;17996;51.056;3.656;2022-08-19T06:46:18;21.00;99.90
27544;DHT22;17996;51.056;3.656;2022-08-19T06:48:47;21.10;99.90
27544;DHT22;17996;51.056;3.656;2022-08-19T06:51:17;21.00;99.90
27544;DHT22;17996;51.056;3.656;2022-08-19T06:53:46;21.10;99.90
27544;DHT22;17996;51.056;3.656;2022-08-19T06:56:14;21.00;99.90
27544;DHT22;17996;51.056;3.656;2022-08-19T06:58:40;20.90;99.90
27544;DHT22;17996;51.056;3.656;2022-08-19T07:01:06;20.90;99.90
27544;DHT22;17996;51.056;3.656;2022-08-19T07:03:34;20.90;99.90
27544;DHT22;17996;51.056;3.656;2022-08-19T07:06:09;20.90;99.90
27544;DHT22;17996;51.056;3.656;2022-08-19T07:08:36;20.90;99.90
27544;DHT22;17996;51.056;3.656;2022-08-19T07:11:06;20.90;99.90
27544;DHT22;17996;51.056;3.656;2022-08-19T07:13:33;20.90;99.90
27544;DHT22;17996;51.056;3.656;2022-08-19T07:16:16;21.10;99.90
27544;DHT22;17996;51.056;3.656;2022-08-19T07:18:42;21.10;99.90
27544;DHT22;17996;51.056;3.656;2022-08-19T07:21:18;21.10;99.90
27544;DHT22;17996;51.056;3.656;2022-08-19T07:23:45;21.10;99.90
27544;DHT22;17996;51.056;3.656;2022-08-19T07:26:18;21.20;99.90
27544;DHT22;17996;51.056;3.656;2022-08-19T07:28:46;21.20;99.90
27544;DHT22;17996;51.056;3.656;2022-08-19T07:31:13;21.30;99.90
27544;DHT22;17996;51.056;3.656;2022-08-19T07:33:41;21.30;99.90
27544;DHT22;17996;51.056;3.656;2022-08-19T07:36:10;21.40;99.90
27544;DHT22;17996;51.056;3.656;2022-08-19T07:38:37;21.40;99.90
27544;DHT22;17996;51.056;3.656;2022-08-19T07:41:03;21.50;99.90
27544;DHT22;17996;51.056;3.656;2022-08-19T07:43:29;21.50;99.90
27544;DHT22;17996;51.056;3.656;2022-08-19T07:45:55;21.50;99.90
27544;DHT22;17996;51.056;3.656;2022-08-19T07:48:25;21.50;99.90
27544;DHT22;17996;51.056;3.656;2022-08-19T07:50:53;21.60;99.90
27544;DHT22;17996;51.056;3.656;2022-08-19T07:53:21;21.50;99.90
27544;DHT22;17996;51.056;3.656;2022-08-19T07:55:47;21.50;99.90
27544;DHT22;17996;51.056;3.656;2022-08-19T07:58:16;21.50;99.90
27544;DHT22;17996;51.056;3.656;2022-08-19T08:00:43;21.40;99.90
27544;DHT22;17996;51.056;3.656;2022-08-19T08:03:09;21.30;99.90
27544;DHT22;17996;51.056;3.656;2022-08-19T08:05:35;21.30;99.90
27544;DHT22;17996;51.056;3.656;2022-08-19T08:08:20;21.30;99.90
27544;DHT22;17996;51.056;3.656;2022-08-19T08:11:20;21.30;99.90
27544;DHT22;17996;51.056;3.656;2022-08-19T08:13:47;21.30;99.90
27544;DHT22;17996;51.056;3.656;2022-08-19T08:16:14;21.40;99.90
27544;DHT22;17996;51.056;3.656;2022-08-19T08:18:40;21.40;99.90
27544;DHT22;17996;51.056;3.656;2022-08-19T08:21:08;21.40;99.90
27544;DHT22;17996;51.056;3.656;2022-08-19T08:23:34;21.50;99.90
27544;DHT22;17996;51.056;3.656;2022-08-19T08:26:00;21.60;99.90
27544;DHT22;17996;51.056;3.656;2022-08-19T08:28:27;21.60;99.90
27544;DHT22;17996;51.056;3.656;2022-08-19T08:30:54;21.70;99.90
27544;DHT22;17996;51.056;3.656;2022-08-19T08:33:23;21.90;99.90
27544;DHT22;17996;51.056;3.656;2022-08-19T08:35:49;22.00;99.90
27544;DHT22;17996;51.056;3.656;2022-08-19T08:38:15;22.10;99.90
27544;DHT22;17996;51.056;3.656;2022-08-19T08:40:46;22.20;99.90
27544;DHT22;17996;51.056;3.656;2022-08-19T08:43:32;22.20;99.90
27544;DHT22;17996;51.056;3.656;2022-08-19T08:46:05;22.30;99.90
27544;DHT22;17996;51.056;3.656;2022-08-19T08:48:56;22.30;99.90
27544;DHT22;17996;51.056;3.656;2022-08-19T08:51:33;22.30;99.90
27544;DHT22;17996;51.056;3.656;2022-08-19T08:54:02;22.40;99.90
27544;DHT22;17996;51.056;3.656;2022-08-19T08:56:29;22.40;99.90
27544;DHT22;17996;51.056;3.656;2022-08-19T08:59:20;22.50;99.90
27544;DHT22;17996;51.056;3.656;2022-08-19T09:01:47;22.60;99.90
27544;DHT22;17996;51.056;3.656;2022-08-19T09:04:13;22.60;99.90
27544;DHT22;17996;51.056;3.656;2022-08-19T09:06:54;22.50;99.90
27544;DHT22;17996;51.056;3.656;2022-08-19T09:09:40;22.50;99.90
27544;DHT22;17996;51.056;3.656;2022-08-19T09:14:52;22.60;99.90
27544;DHT22;17996;51.056;3.656;2022-08-19T09:17:23;22.70;99.90
27544;DHT22;17996;51.056;3.656;2022-08-19T09:22:34;23.00;99.90
27544;DHT22;17996;51.056;3.656;2022-08-19T09:25:01;23.10;99.90
27544;DHT22;17996;51.056;3.656;2022-08-19T09:27:27;23.30;99.90
27544;DHT22;17996;51.056;3.656;2022-08-19T09:29:53;23.30;99.90
27544;DHT22;17996;51.056;3.656;2022-08-19T09:32:20;23.50;99.90
27544;DHT22;17996;51.056;3.656;2022-08-19T09:34:46;23.60;99.90
27544;DHT22;17996;51.056;3.656;2022-08-19T09:37:12;23.60;99.90
27544;DHT22;17996;51.056;3.656;2022-08-19T09:39:38;23.70;99.90
27544;DHT22;17996;51.056;3.656;2022-08-19T09:42:06;23.60;99.90
27544;DHT22;17996;51.056;3.656;2022-08-19T09:44:38;23.70;99.90
27544;DHT22;17996;51.056;3.656;2022-08-19T09:47:03;23.80;99.90
27544;DHT22;17996;51.056;3.656;2022-08-19T09:49:30;23.80;99.90
27544;DHT22;17996;51.056;3.656;2022-08-19T09:51:56;23.90;99.90
27544;DHT22;17996;51.056;3.656;2022-08-19T09:54:23;23.80;99.90
27544;DHT22;17996;51.056;3.656;2022-08-19T09:56:49;23.70;99.90
27544;DHT22;17996;51.056;3.656;2022-08-19T09:59:15;23.60;99.90
27544;DHT22;17996;51.056;3.656;2022-08-19T10:01:42;23.60;99.90
27544;DHT22;17996;51.056;3.656;2022-08-19T10:04:10;23.50;99.90
27544;DHT22;17996;51.056;3.656;2022-08-19T10:06:38;23.40;99.90
27544;DHT22;17996;51.056;3.656;2022-08-19T10:09:06;23.30;99.90
27544;DHT22;17996;51.056;3.656;2022-08-19T10:11:34;23.30;99.90
27544;DHT22;17996;51.056;3.656;2022-08-19T10:14:01;23.30;99.90
27544;DHT22;17996;51.056;3.656;2022-08-19T10:16:27;23.40;99.90
27544;DHT22;17996;51.056;3.656;2022-08-19T10:18:54;23.70;99.90
27544;DHT22;17996;51.056;3.656;2022-08-19T10:21:27;23.90;99.90
27544;DHT22;17996;51.056;3.656;2022-08-19T10:23:56;24.10;99.90
27544;DHT22;17996;51.056;3.656;2022-08-19T10:26:30;24.20;99.90
27544;DHT22;17996;51.056;3.656;2022-08-19T10:28:56;24.20;99.90
27544;DHT22;17996;51.056;3.656;2022-08-19T10:31:25;24.30;99.90
27544;DHT22;17996;51.056;3.656;2022-08-19T10:33:51;24.40;99.90
27544;DHT22;17996;51.056;3.656;2022-08-19T10:36:30;24.50;99.90
27544;DHT22;17996;51.056;3.656;2022-08-19T10:38:59;24.60;99.90
27544;DHT22;17996;51.056;3.656;2022-08-19T10:41:31;24.60;99.90
27544;DHT22;17996;51.056;3.656;2022-08-19T10:44:01;24.50;99.90
27544;DHT22;17996;51.056;3.656;2022-08-19T10:46:28;24.50;99.90
27544;DHT22;17996;51.056;3.656;2022-08-19T10:49:00;24.50;99.90
27544;DHT22;17996;51.056;3.656;2022-08-19T10:51:26;24.40;99.90
27544;DHT22;17996;51.056;3.656;2022-08-19T10:54:12;24.30;99.90
27544;DHT22;17996;51.056;3.656;2022-08-19T10:56:39;24.20;99.90
27544;DHT22;17996;51.056;3.656;2022-08-19T11:01:50;24.20;99.90
27544;DHT22;17996;51.056;3.656;2022-08-19T11:04:18;24.40;99.90
27544;DHT22;17996;51.056;3.656;2022-08-19T11:06:48;24.50;99.90
27544;DHT22;17996;51.056;3.656;2022-08-19T11:09:18;24.60;99.90
27544;DHT22;17996;51.056;3.656;2022-08-19T11:11:45;24.70;99.90
27544;DHT22;17996;51.056;3.656;2022-08-19T11:14:15;24.80;99.90
27544;DHT22;17996;51.056;3.656;2022-08-19T11:16:43;24.80;99.90
27544;DHT22;17996;51.056;3.656;2022-08-19T11:19:12;24.70;99.90
27544;DHT22;17996;51.056;3.656;2022-08-19T11:21:44;24.60;99.90
27544;DHT22;17996;51.056;3.656;2022-08-19T11:24:14;24.70;99.90
27544;DHT22;17996;51.056;3.656;2022-08-19T11:26:43;24.60;99.90
27544;DHT22;17996;51.056;3.656;2022-08-19T11:29:11;24.70;99.90
27544;DHT22;17996;51.056;3.656;2022-08-19T11:31:44;24.70;99.90
27544;DHT22;17996;51.056;3.656;2022-08-19T11:34:14;24.80;99.90
27544;DHT22;17996;51.056;3.656;2022-08-19T11:36:43;24.80;99.90
27544;DHT22;17996;51.056;3.656;2022-08-19T11:39:11;24.60;99.90
27544;DHT22;17996;51.056;3.656;2022-08-19T11:41:37;24.40;99.90
27544;DHT22;17996;51.056;3.656;2022-08-19T11:44:03;24.20;99.90
27544;DHT22;17996;51.056;3.656;2022-08-19T11:46:31;24.20;99.90
27544;DHT22;17996;51.056;3.656;2022-08-19T11:48:58;24.10;99.90
27544;DHT22;17996;51.056;3.656;2022-08-19T11:51:28;24.00;99.90
27544;DHT22;17996;51.056;3.656;2022-08-19T11:53:55;24.10;99.90
27544;DHT22;17996;51.056;3.656;2022-08-19T11:56:23;24.30;99.90
27544;DHT22;17996;51.056;3.656;2022-08-19T11:58:52;24.60;99.90
27544;DHT22;17996;51.056;3.656;2022-08-19T12:01:19;24.80;99.90
27544;DHT22;17996;51.056;3.656;2022-08-19T12:03:47;24.90;99.90
27544;DHT22;17996;51.056;3.656;2022-08-19T12:06:23;25.10;99.90
27544;DHT22;17996;51.056;3.656;2022-08-19T12:08:52;25.30;99.90
27544;DHT22;17996;51.056;3.656;2022-08-19T12:11:17;25.60;99.90
27544;DHT22;17996;51.056;3.656;2022-08-19T12:13:43;25.70;99.90
27544;DHT22;17996;51.056;3.656;2022-08-19T12:16:14;25.90;99.90
27544;DHT22;17996;51.056;3.656;2022-08-19T12:18:42;26.10;99.90
27544;DHT22;17996;51.056;3.656;2022-08-19T12:21:23;26.20;99.90
27544;DHT22;17996;51.056;3.656;2022-08-19T12:23:54;26.40;99.90
27544;DHT22;17996;51.056;3.656;2022-08-19T12:26:20;26.50;99.90
27544;DHT22;17996;51.056;3.656;2022-08-19T12:28:46;26.40;99.90
27544;DHT22;17996;51.056;3.656;2022-08-19T12:31:13;26.50;99.90
27544;DHT22;17996;51.056;3.656;2022-08-19T12:33:41;26.40;99.90
27544;DHT22;17996;51.056;3.656;2022-08-19T12:36:09;26.40;99.90
27544;DHT22;17996;51.056;3.656;2022-08-19T12:38:38;26.40;99.90
27544;DHT22;17996;51.056;3.656;2022-08-19T12:41:05;26.40;99.90
27544;DHT22;17996;51.056;3.656;2022-08-19T12:43:33;26.40;99.90
27544;DHT22;17996;51.056;3.656;2022-08-19T12:46:02;26.40;99.90
27544;DHT22;17996;51.056;3.656;2022-08-19T12:48:31;26.60;99.90
27544;DHT22;17996;51.056;3.656;2022-08-19T12:50:58;26.70;99.90
27544;DHT22;17996;51.056;3.656;2022-08-19T12:53:24;26.90;99.90
27544;DHT22;17996;51.056;3.656;2022-08-19T12:55:57;27.00;99.90
27544;DHT22;17996;51.056;3.656;2022-08-19T12:58:25;27.00;99.90
27544;DHT22;17996;51.056;3.656;2022-08-19T13:00:52;27.00;99.90
27544;DHT22;17996;51.056;3.656;2022-08-19T13:03:17;27.00;99.90
27544;DHT22;17996;51.056;3.656;2022-08-19T13:05:43;26.90;99.90
27544;DHT22;17996;51.056;3.656;2022-08-19T13:08:09;26.70;99.90
27544;DHT22;17996;51.056;3.656;2022-08-19T13:10:35;26.40;99.90
27544;DHT22;17996;51.056;3.656;2022-08-19T13:13:07;26.10;99.90
27544;DHT22;17996;51.056;3.656;2022-08-19T13:15:34;25.50;99.90
27544;DHT22;17996;51.056;3.656;2022-08-19T13:18:01;24.90;99.90
27544;DHT22;17996;51.056;3.656;2022-08-19T13:20:27;24.30;99.90
27544;DHT22;17996;51.056;3.656;2022-08-19T13:22:54;23.70;99.90
27544;DHT22;17996;51.056;3.656;2022-08-19T13:25:20;23.30;99.90
27544;DHT22;17996;51.056;3.656;2022-08-19T13:27:47;22.90;99.90
27544;DHT22;17996;51.056;3.656;2022-08-19T13:30:18;22.50;99.90
27544;DHT22;17996;51.056;3.656;2022-08-19T13:33:03;22.20;99.90
27544;DHT22;17996;51.056;3.656;2022-08-19T13:36:01;22.10;99.90
27544;DHT22;17996;51.056;3.656;2022-08-19T13:38:27;22.20;99.90
27544;DHT22;17996;51.056;3.656;2022-08-19T13:40:54;22.20;99.90
27544;DHT22;17996;51.056;3.656;2022-08-19T13:43:25;22.20;99.90
27544;DHT22;17996;51.056;3.656;2022-08-19T13:45:54;22.20;99.90
27544;DHT22;17996;51.056;3.656;2022-08-19T13:48:23;22.30;99.90
27544;DHT22;17996;51.056;3.656;2022-08-19T13:50:51;22.30;99.90
27544;DHT22;17996;51.056;3.656;2022-08-19T13:53:18;22.50;99.90
27544;DHT22;17996;51.056;3.656;2022-08-19T13:55:44;22.70;99.90
27544;DHT22;17996;51.056;3.656;2022-08-19T13:58:10;23.00;99.90
27544;DHT22;17996;51.056;3.656;2022-08-19T14:00:41;23.40;99.90
27544;DHT22;17996;51.056;3.656;2022-08-19T14:03:07;23.50;99.90
27544;DHT22;17996;51.056;3.656;2022-08-19T14:05:34;23.50;99.90
27544;DHT22;17996;51.056;3.656;2022-08-19T14:08:01;23.60;99.90
27544;DHT22;17996;51.056;3.656;2022-08-19T14:10:27;23.50;99.90
27544;DHT22;17996;51.056;3.656;2022-08-19T14:12:58;23.50;99.90
27544;DHT22;17996;51.056;3.656;2022-08-19T14:15:25;23.40;99.90
27544;DHT22;17996;51.056;3.656;2022-08-19T14:17:51;23.40;99.90
27544;DHT22;17996;51.056;3.656;2022-08-19T14:20:17;23.50;99.90
27544;DHT22;17996;51.056;3.656;2022-08-19T14:22:44;23.60;99.90
27544;DHT22;17996;51.056;3.656;2022-08-19T14:25:14;23.70;99.90
27544;DHT22;17996;51.056;3.656;2022-08-19T14:27:41;24.00;99.90
27544;DHT22;17996;51.056;3.656;2022-08-19T14:30:10;24.20;99.90
27544;DHT22;17996;51.056;3.656;2022-08-19T14:32:36;24.40;99.90
27544;DHT22;17996;51.056;3.656;2022-08-19T14:35:03;24.60;99.90
27544;DHT22;17996;51.056;3.656;2022-08-19T14:37:28;24.80;99.90
27544;DHT22;17996;51.056;3.656;2022-08-19T14:39:54;24.90;99.90
27544;DHT22;17996;51.056;3.656;2022-08-19T14:42:20;25.10;99.90
27544;DHT22;17996;51.056;3.656;2022-08-19T14:44:45;25.30;99.90
27544;DHT22;17996;51.056;3.656;2022-08-19T14:47:11;25.80;99.90
27544;DHT22;17996;51.056;3.656;2022-08-19T14:49:37;26.00;99.90
27544;DHT22;17996;51.056;3.656;2022-08-19T14:52:05;25.90;99.90
27544;DHT22;17996;51.056;3.656;2022-08-19T14:54:31;25.90;99.90
27544;DHT22;17996;51.056;3.656;2022-08-19T14:56:57;25.90;99.90
27544;DHT22;17996;51.056;3.656;2022-08-19T14:59:22;26.10;99.90
27544;DHT22;17996;51.056;3.656;2022-08-19T15:01:48;26.40;99.90
27544;DHT22;17996;51.056;3.656;2022-08-19T15:04:14;26.60;99.90
27544;DHT22;17996;51.056;3.656;2022-08-19T15:06:40;26.90;99.90
27544;DHT22;17996;51.056;3.656;2022-08-19T15:09:08;27.10;99.90
27544;DHT22;17996;51.056;3.656;2022-08-19T15:11:34;27.00;99.90
27544;DHT22;17996;51.056;3.656;2022-08-19T15:14:00;26.70;99.90
27544;DHT22;17996;51.056;3.656;2022-08-19T15:16:27;26.40;99.90
27544;DHT22;17996;51.056;3.656;2022-08-19T15:18:55;26.20;99.90
27544;DHT22;17996;51.056;3.656;2022-08-19T15:21:24;25.90;99.90
27544;DHT22;17996;51.056;3.656;2022-08-19T15:23:50;25.70;99.90
27544;DHT22;17996;51.056;3.656;2022-08-19T15:26:17;25.50;99.90
27544;DHT22;17996;51.056;3.656;2022-08-19T15:28:44;25.90;99.90
27544;DHT22;17996;51.056;3.656;2022-08-19T15:31:10;26.20;99.90
27544;DHT22;17996;51.056;3.656;2022-08-19T15:33:38;26.00;99.90
27544;DHT22;17996;51.056;3.656;2022-08-19T15:36:07;25.80;99.90
27544;DHT22;17996;51.056;3.656;2022-08-19T15:38:33;25.50;99.90
27544;DHT22;17996;51.056;3.656;2022-08-19T15:41:05;25.40;99.90
27544;DHT22;17996;51.056;3.656;2022-08-19T15:43:58;25.20;99.90
27544;DHT22;17996;51.056;3.656;2022-08-19T15:46:27;25.00;99.90
27544;DHT22;17996;51.056;3.656;2022-08-19T15:48:54;24.80;99.90
27544;DHT22;17996;51.056;3.656;2022-08-19T15:51:20;24.60;99.90
27544;DHT22;17996;51.056;3.656;2022-08-19T15:53:46;24.50;99.90
27544;DHT22;17996;51.056;3.656;2022-08-19T15:56:13;24.40;99.90
27544;DHT22;17996;51.056;3.656;2022-08-19T15:58:39;24.30;99.90
27544;DHT22;17996;51.056;3.656;2022-08-19T16:01:23;24.10;99.90
27544;DHT22;17996;51.056;3.656;2022-08-19T16:04:07;24.10;99.90
27544;DHT22;17996;51.056;3.656;2022-08-19T16:06:55;24.10;99.90